This is the latest recevied weather packets stored in our database for station/object KD5NDU-15. If no packets are shown the sender has not sent any weather packets the latest 1 day(s).
| Time | Temp. | Humidity | Pressure | Rain* | Wind** | Luminosity | Snow |
|---|---|---|---|---|---|---|---|
| 1778092008 | 16.11° C | 95% | 1010.6 hPa | 0 mm | - | 146 W/m² | - |
| 1778091708 | 16.11° C | 96% | 1010.6 hPa | 0 mm | - | 149 W/m² | - |
| 1778091408 | 16.11° C | 95% | 1010.6 hPa | 0 mm | - | 151 W/m² | - |
| 1778091108 | 16.11° C | 95% | 1010.8 hPa | 0 mm | - | 149 W/m² | - |
| 1778089910 | 16.67° C | 95% | 1010.4 hPa | 0 mm | - | 179 W/m² | - |
| 1778089608 | 16.67° C | 97% | 1010.6 hPa | 0 mm | - | 174 W/m² | - |
| 1778089308 | 16.11° C | 96% | 1010.5 hPa | 0 mm | - | 206 W/m² | - |
| 1778088408 | 16.11° C | 96% | 1010.8 hPa | 0 mm | - | 169 W/m² | - |
| 1778087512 | 16.11° C | 96% | 1010.7 hPa | 0 mm | - | 225 W/m² | - |
| 1778086608 | 16.67° C | 96% | 1010.5 hPa | 0 mm | - | 160 W/m² | - |
| 1778086308 | 16.67° C | 96% | 1010.5 hPa | 0 mm | - | 178 W/m² | - |
| 1778086008 | 16.67° C | 95% | 1010.5 hPa | 0 mm | - | 135 W/m² | - |
| 1778085410 | 17.78° C | 96% | 1010.3 hPa | 0 mm | - | 144 W/m² | - |
| 1778085108 | 17.78° C | 96% | 1010.3 hPa | 0 mm | - | 130 W/m² | - |
| 1778084808 | 17.78° C | 97% | 1010.4 hPa | 0 mm | - | 113 W/m² | - |
| 1778071197 | - | - | 0 hPa | 0 mm | - | - | - |
| 1778037257 | 21.11° C | 89% | 1006.9 hPa | 0 mm | - | 0 W/m² | - |
| 1778036957 | 21.11° C | 89% | 1006.9 hPa | 0 mm | - | 0 W/m² | - |
| 1778036657 | 21.11° C | 89% | 1007 hPa | 0 mm | - | 0 W/m² | - |
| 1778036057 | 21.11° C | 89% | 1006.8 hPa | 0 mm | - | 0 W/m² | - |
| 1778035457 | 21.11° C | 88% | 1006.7 hPa | 0 mm | - | 0 W/m² | - |
| 1778035157 | 21.11° C | 88% | 1006.8 hPa | 0 mm | - | 0 W/m² | - |
| 1778034857 | 21.11° C | 88% | 1006.9 hPa | 0 mm | - | 0 W/m² | - |
| 1778034585 | 21.11° C | 88% | 1006.8 hPa | 0 mm | - | 0 W/m² | - |
| 1778034258 | 21.11° C | 88% | 1006.7 hPa | 0 mm | - | 0 W/m² | - |
* Rain latest hour (hover to see other rain measurements)
** Current wind speed in m/s (hover to see current wind gust speed)